Time;durP1;ratioP1;P1;durP2;ratioP2;P2;SDS_P1;SDS_P2;PMS_P1;PMS_P2;Temp;Humidity;BMP_temperature;BMP_pressure;BME280_temperature;BME280_humidity;BME280_pressure;Samples;Min_cycle;Max_cycle;Signal;HPM_P1;HPM_P2
2021/06/26 00:00:35;;;;;;;0.20;0.20;;;;;;;12.64;79.55;101322.75;5043895;28;20053;-83
2021/06/26 00:03:40;;;;;;;0.10;0.10;;;;;;;12.65;79.54;101327.09;5059135;28;20045;-83
2021/06/26 00:06:19;;;;;;;0.10;0.10;;;;;;;12.61;78.79;101313.22;5046768;28;20057;-83
2021/06/26 00:08:54;;;;;;;0.10;0.10;;;;;;;12.68;79.59;101332.84;5050188;28;20473;-83
2021/06/26 00:11:52;;;;;;;0.10;0.10;;;;;;;12.75;78.17;101327.91;5048364;28;20048;-83
2021/06/26 00:14:29;;;;;;;0.20;0.20;;;;;;;12.75;78.66;101325.16;5050336;28;20049;-82
2021/06/26 00:17:05;;;;;;;0.10;0.10;;;;;;;12.78;79.67;101325.72;5053719;28;20045;-84
2021/06/26 00:20:04;;;;;;;0.10;0.10;;;;;;;12.75;79.52;101325.16;5048294;28;20049;-83
2021/06/26 00:22:43;;;;;;;0.10;0.10;;;;;;;12.60;80.63;101287.00;5040314;28;20288;-83
2021/06/26 00:25:22;;;;;;;0.10;0.10;;;;;;;12.82;79.92;101310.41;5041903;28;20052;-83
2021/06/26 00:28:09;;;;;;;0.10;0.10;;;;;;;12.92;79.11;101315.81;5037324;28;20474;-83
2021/06/26 00:30:47;;;;;;;0.10;0.10;;;;;;;12.89;79.72;101311.72;5052909;28;20049;-83
2021/06/26 00:33:28;;;;;;;0.10;0.10;;;;;;;12.87;80.03;101316.66;5041604;28;20064;-83
2021/06/26 00:36:27;;;;;;;0.10;0.10;;;;;;;12.85;79.19;101326.22;5049387;28;20049;-83
2021/06/26 00:39:03;;;;;;;0.10;0.10;;;;;;;12.86;78.77;101328.69;5035207;28;20053;-84
2021/06/26 00:41:35;;;;;;;0.15;0.10;;;;;;;12.79;78.50;101324.59;5053603;28;20397;-83
2021/06/26 00:44:18;;;;;;;0.10;0.10;;;;;;;12.73;79.06;101323.81;5043253;28;20071;-83
2021/06/26 00:47:13;;;;;;;0.20;0.20;;;;;;;12.65;80.37;101325.22;5043846;28;20052;-84
2021/06/26 00:49:47;;;;;;;0.10;0.10;;;;;;;12.56;79.98;101315.94;5052431;28;20053;-83
2021/06/26 00:53:06;;;;;;;0.10;0.10;;;;;;;12.60;80.96;101341.59;5042088;28;20492;-82
2021/06/26 01:00:07;;;;;;;0.20;0.20;;;;;;;12.28;80.61;101314.63;5041496;28;20044;-83
2021/06/26 01:02:43;;;;;;;0.20;0.20;;;;;;;12.30;80.91;101324.19;5052141;28;20065;-83
2021/06/26 01:05:13;;;;;;;0.10;0.10;;;;;;;12.32;81.12;101326.63;5044117;28;20053;-83
2021/06/26 01:07:49;;;;;;;0.20;0.20;;;;;;;12.38;80.97;101326.34;5044806;28;20125;-83
2021/06/26 01:10:28;;;;;;;0.20;0.10;;;;;;;12.39;80.61;101322.53;5040696;28;20505;-85
2021/06/26 01:12:58;;;;;;;0.30;0.20;;;;;;;12.43;80.79;101322.81;5062951;28;20050;-83
2021/06/26 01:15:32;;;;;;;0.20;0.20;;;;;;;12.42;80.62;101321.97;5052952;28;20044;-82
2021/06/26 01:18:23;;;;;;;0.10;0.10;;;;;;;12.35;81.30;101324.19;5037787;28;20056;-83
2021/06/26 01:21:25;;;;;;;0.10;0.10;;;;;;;12.35;81.50;101334.28;5044561;28;20128;-83
2021/06/26 01:24:01;;;;;;;0.10;0.10;;;;;;;12.33;81.29;101329.13;5042773;28;20049;-82
2021/06/26 01:26:35;;;;;;;0.20;0.20;;;;;;;12.23;81.57;101327.19;5035456;28;20041;-83
2021/06/26 01:29:11;;;;;;;0.10;0.10;;;;;;;12.22;81.54;101330.19;5041257;28;20049;-83
2021/06/26 01:31:44;;;;;;;0.10;0.10;;;;;;;12.16;81.52;101336.78;5045251;28;20045;-83
2021/06/26 01:34:19;;;;;;;0.20;0.20;;;;;;;12.11;81.61;101332.16;5045720;28;20049;-83
2021/06/26 01:36:52;;;;;;;0.10;0.10;;;;;;;12.06;81.89;101324.75;5045879;28;20045;-83
2021/06/26 01:39:30;;;;;;;0.20;0.20;;;;;;;11.81;82.02;101284.66;5042740;28;20044;-83
2021/06/26 01:42:01;;;;;;;0.10;0.10;;;;;;;11.81;82.14;101302.94;5046839;28;20051;-83
2021/06/26 01:44:40;;;;;;;1.67;0.20;;;;;;;11.93;82.64;101313.56;5039108;28;20050;-83
2021/06/26 01:48:01;;;;;;;0.20;0.20;;;;;;;12.05;82.89;101327.78;5047783;28;20053;-83
2021/06/26 01:51:27;;;;;;;0.20;0.20;;;;;;;12.00;81.47;101330.50;5055931;28;20049;-83
2021/06/26 01:54:05;;;;;;;0.10;0.10;;;;;;;11.83;83.85;101323.38;5045045;28;20060;-82
2021/06/26 01:56:41;;;;;;;0.20;0.20;;;;;;;11.95;82.33;101323.13;5048012;28;20049;-83
2021/06/26 01:59:15;;;;;;;0.10;0.10;;;;;;;11.99;82.02;101320.69;5051649;28;20045;-82
2021/06/26 02:02:15;;;;;;;0.20;0.20;;;;;;;12.02;81.92;101320.94;5041812;28;20054;-83
2021/06/26 02:04:43;;;;;;;0.20;0.20;;;;;;;12.03;82.20;101321.78;5059886;28;20049;-82
2021/06/26 02:07:17;;;;;;;0.13;0.13;;;;;;;12.00;82.64;101323.16;5046889;28;20053;-83
2021/06/26 02:09:53;;;;;;;0.10;0.10;;;;;;;11.85;83.11;101304.84;5041841;28;20040;-83
2021/06/26 02:12:33;;;;;;;0.10;0.10;;;;;;;11.95;82.77;101325.06;5047023;28;20064;-83
2021/06/26 02:16:05;;;;;;;0.20;0.20;;;;;;;11.93;82.68;101328.00;5039467;28;20063;-83
2021/06/26 02:18:39;;;;;;;0.10;0.10;;;;;;;11.90;82.90;101323.94;5036956;28;20075;-83
2021/06/26 02:21:17;;;;;;;0.15;0.15;;;;;;;11.96;82.83;101324.78;5043371;28;20044;-83
2021/06/26 02:24:00;;;;;;;0.15;0.15;;;;;;;12.02;82.20;101314.69;5048807;28;20060;-83
2021/06/26 02:26:29;;;;;;;0.20;0.20;;;;;;;12.00;82.47;101311.41;5047559;28;20053;-82
2021/06/26 02:29:04;;;;;;;0.20;0.20;;;;;;;12.07;82.79;101322.88;5041861;28;20053;-82
2021/06/26 02:32:07;;;;;;;0.20;0.20;;;;;;;12.06;82.87;101321.22;5048899;28;20056;-82
2021/06/26 02:34:45;;;;;;;0.20;0.20;;;;;;;12.08;83.02;101313.56;5047912;28;20049;-83
2021/06/26 02:37:18;;;;;;;0.20;0.20;;;;;;;12.07;83.39;101314.69;5041274;28;20397;-83
2021/06/26 02:39:47;;;;;;;0.20;0.20;;;;;;;12.17;83.75;101302.94;5044487;28;20049;-82
2021/06/26 02:42:20;;;;;;;0.20;0.20;;;;;;;12.20;83.69;101321.50;5038682;28;20050;-83
2021/06/26 02:44:52;;;;;;;0.17;0.17;;;;;;;12.31;83.00;101322.28;5044782;28;20490;-83
2021/06/26 02:47:25;;;;;;;0.10;0.10;;;;;;;12.38;82.60;101317.34;5045621;28;20060;-83
2021/06/26 02:50:13;;;;;;;0.20;0.20;;;;;;;12.29;85.04;101311.66;5042092;28;20046;-83
2021/06/26 02:52:50;;;;;;;0.20;0.20;;;;;;;12.29;84.82;101327.19;5040223;28;20052;-83
2021/06/26 02:55:44;;;;;;;0.10;0.10;;;;;;;12.27;85.67;101329.41;5046878;28;20069;-82
2021/06/26 03:01:55;;;;;;;0.15;0.15;;;;;;;12.19;84.97;101326.13;5032613;28;20060;-84
2021/06/26 03:04:38;;;;;;;0.10;0.10;;;;;;;12.41;83.24;101320.38;5038896;28;20049;-83
2021/06/26 03:07:16;;;;;;;0.13;0.13;;;;;;;12.07;82.53;101285.47;5043675;28;20052;-83
2021/06/26 03:09:44;;;;;;;0.10;0.10;;;;;;;12.33;82.79;101329.13;5033584;28;20044;-83
2021/06/26 03:12:43;;;;;;;0.20;0.20;;;;;;;12.33;82.97;101334.56;5038686;28;20048;-83
2021/06/26 03:15:20;;;;;;;0.10;0.10;;;;;;;12.30;82.33;101337.03;5048994;28;20487;-83
2021/06/26 03:18:20;;;;;;;0.20;0.20;;;;;;;12.23;82.66;101329.91;5044828;28;20041;-82
2021/06/26 03:20:54;;;;;;;0.10;0.10;;;;;;;12.19;82.87;101341.66;5039994;28;20497;-84
2021/06/26 03:23:30;;;;;;;0.20;0.20;;;;;;;12.16;83.29;101336.78;5044940;28;20056;-84
2021/06/26 03:26:33;;;;;;;0.20;0.20;;;;;;;12.21;82.87;101344.97;5046260;28;20676;-83
2021/06/26 03:29:07;;;;;;;0.20;0.20;;;;;;;12.22;83.38;101341.97;5037357;28;20052;-83
2021/06/26 03:32:06;;;;;;;0.20;0.20;;;;;;;12.24;83.07;101342.47;5040661;28;20501;-83
2021/06/26 03:34:43;;;;;;;0.20;0.20;;;;;;;12.23;83.79;101340.03;5046729;28;20417;-84
2021/06/26 03:37:43;;;;;;;0.13;0.13;;;;;;;12.28;84.83;101353.69;5040613;28;20046;-83
2021/06/26 03:40:20;;;;;;;0.15;0.15;;;;;;;12.17;85.87;101354.78;5046315;28;20044;-83
2021/06/26 03:42:51;;;;;;;0.20;0.20;;;;;;;12.12;86.29;101354.78;5039442;28;20049;-83
2021/06/26 03:45:42;;;;;;;0.20;0.20;;;;;;;12.12;86.70;101349.31;5035345;28;20061;-83
2021/06/26 03:48:15;;;;;;;0.15;0.15;;;;;;;12.16;86.74;101345.75;5042630;28;20512;-83
2021/06/26 03:50:58;;;;;;;0.20;0.20;;;;;;;12.31;85.79;101346.84;5061002;28;20053;-83
2021/06/26 03:53:36;;;;;;;0.20;0.20;;;;;;;12.39;86.18;101343.56;5045450;28;20049;-82
2021/06/26 03:56:09;;;;;;;0.20;0.20;;;;;;;12.47;86.05;101345.75;5044859;28;20045;-83
2021/06/26 03:58:45;;;;;;;0.63;0.25;;;;;;;12.57;86.12;101351.16;5039455;28;20049;-82
2021/06/26 04:01:15;;;;;;;0.10;0.10;;;;;;;12.70;85.30;101351.69;5054432;28;20052;-83
2021/06/26 04:03:45;;;;;;;0.20;0.20;;;;;;;12.78;84.60;101363.97;5051015;28;20048;-83
2021/06/26 04:06:21;;;;;;;0.17;0.17;;;;;;;12.88;83.35;101356.53;5051167;28;20060;-83
2021/06/26 04:08:56;;;;;;;0.20;0.20;;;;;;;13.00;82.62;101369.06;5053213;28;20144;-83
2021/06/26 04:11:29;;;;;;;0.10;0.10;;;;;;;13.09;83.17;101372.84;5045254;28;20049;-83
2021/06/26 04:14:08;;;;;;;0.20;0.20;;;;;;;13.16;83.26;101365.19;5049512;28;20064;-83
2021/06/26 04:16:41;;;;;;;0.20;0.20;;;;;;;13.23;82.99;101362.13;5047085;28;20048;-83
2021/06/26 04:19:17;;;;;;;0.20;0.20;;;;;;;13.24;85.27;101366.50;5042559;28;20042;-83
2021/06/26 04:21:48;;;;;;;0.17;0.17;;;;;;;13.38;84.63;101374.91;5043750;28;20382;-83
2021/06/26 04:24:17;;;;;;;0.20;0.20;;;;;;;13.40;83.73;101370.00;5056802;28;20053;-83
2021/06/26 04:26:46;;;;;;;0.20;0.20;;;;;;;13.45;82.75;101367.25;5033943;28;20053;-82
2021/06/26 04:29:22;;;;;;;0.20;0.20;;;;;;;13.53;82.12;101363.88;5047015;28;20052;-83
2021/06/26 04:32:21;;;;;;;0.13;0.13;;;;;;;13.58;83.11;101369.34;5034052;28;20049;-83
2021/06/26 04:35:20;;;;;;;0.10;0.10;;;;;;;13.58;84.08;101374.81;5050832;28;20482;-83
2021/06/26 04:37:52;;;;;;;0.20;0.20;;;;;;;13.64;83.06;101380.25;5046804;28;20052;-83
2021/06/26 04:40:30;;;;;;;0.20;0.20;;;;;;;13.63;82.92;101376.72;5048562;28;20049;-84
2021/06/26 04:43:01;;;;;;;0.20;0.20;;;;;;;13.70;82.32;101381.84;5044689;28;20297;-83
2021/06/26 04:46:02;;;;;;;0.20;0.20;;;;;;;13.69;82.74;101377.50;5048708;28;20049;-83
2021/06/26 04:48:44;;;;;;;0.10;0.10;;;;;;;13.69;85.07;101378.28;5042501;28;20048;-82
2021/06/26 04:52:12;;;;;;;0.20;0.20;;;;;;;13.67;85.90;101385.97;5048286;28;20056;-83
2021/06/26 04:55:16;;;;;;;0.20;0.20;;;;;;;13.73;85.38;101379.38;5040973;28;20052;-82
2021/06/26 04:57:52;;;;;;;0.28;0.28;;;;;;;13.49;85.51;101371.06;5058680;28;20053;-82
2021/06/26 05:00:22;;;;;;;0.50;0.30;;;;;;;13.55;84.37;101371.84;5050470;28;20041;-83
2021/06/26 05:02:50;;;;;;;0.30;0.30;;;;;;;13.62;83.13;101369.59;5044334;28;20424;-84
2021/06/26 05:05:24;;;;;;;0.35;0.30;;;;;;;13.60;84.15;101364.41;5049039;28;20056;-83
2021/06/26 05:07:59;;;;;;;0.20;0.20;;;;;;;13.72;84.20;101361.31;5042920;28;20056;-83
2021/06/26 05:10:29;;;;;;;0.20;0.20;;;;;;;13.90;82.95;101369.94;5052340;28;20047;-83
2021/06/26 05:13:03;;;;;;;0.20;0.20;;;;;;;14.01;82.63;101366.03;5051718;28;20080;-83
2021/06/26 05:15:36;;;;;;;0.25;0.25;;;;;;;15.34;79.63;101362.16;5048231;28;20053;-83
2021/06/26 05:18:08;;;;;;;0.20;0.20;;;;;;;16.94;73.06;101363.06;5041730;28;20060;-83
2021/06/26 05:21:37;;;;;;;0.25;0.25;;;;;;;18.07;64.92;101376.25;5051564;28;20049;-84
2021/06/26 05:24:07;;;;;;;0.30;0.30;;;;;;;16.89;72.73;101376.91;5044292;28;20049;-82
2021/06/26 05:26:48;;;;;;;0.28;0.28;;;;;;;17.02;71.60;101375.28;5050101;28;20052;-83
2021/06/26 05:29:23;;;;;;;0.22;0.20;;;;;;;17.38;69.50;101382.78;5040996;28;20056;-83
2021/06/26 05:31:52;;;;;;;0.30;0.30;;;;;;;16.49;72.65;101391.13;5046201;28;20404;-83
2021/06/26 05:34:27;;;;;;;0.25;0.20;;;;;;;15.71;75.32;101380.53;5047322;28;20053;-82
2021/06/26 05:37:01;;;;;;;0.20;0.20;;;;;;;15.46;75.85;101392.69;5046928;28;20064;-83
2021/06/26 05:39:35;;;;;;;0.20;0.20;;;;;;;15.24;76.67;101399.56;5048582;28;20054;-82
2021/06/26 05:42:13;;;;;;;0.10;0.10;;;;;;;15.09;76.81;101397.84;5035840;28;20072;-83
2021/06/26 05:44:46;;;;;;;0.20;0.20;;;;;;;14.63;79.08;101360.00;5042544;28;20049;-83
2021/06/26 05:47:48;;;;;;;0.20;0.20;;;;;;;14.90;77.81;101405.19;5042311;28;20124;-83
2021/06/26 05:50:21;;;;;;;0.20;0.20;;;;;;;14.88;78.06;101410.94;5033244;28;20049;-83
2021/06/26 05:52:52;;;;;;;0.20;0.20;;;;;;;15.10;78.17;101409.63;5039045;28;20060;-83
2021/06/26 05:55:31;;;;;;;0.10;0.10;;;;;;;15.11;78.56;101401.09;5038640;28;20037;-82
2021/06/26 05:58:36;;;;;;;0.25;0.20;;;;;;;14.89;79.24;101414.53;5031695;28;20053;-83
2021/06/26 06:01:11;;;;;;;0.10;0.10;;;;;;;14.84;79.77;101418.13;5045231;28;20044;-83
2021/06/26 06:03:40;;;;;;;0.10;0.10;;;;;;;14.50;79.52;101413.53;5039341;28;20045;-83
2021/06/26 06:06:16;;;;;;;0.40;0.30;;;;;;;14.66;80.10;101421.63;5033429;28;20037;-83
2021/06/26 06:08:50;;;;;;;0.20;0.20;;;;;;;14.84;80.27;101415.38;5047283;28;20045;-84
2021/06/26 06:11:25;;;;;;;0.20;0.20;;;;;;;15.36;78.16;101404.63;5039383;28;20053;-83
2021/06/26 06:14:29;;;;;;;0.20;0.20;;;;;;;15.90;77.15;101408.00;5037727;28;20775;-82
2021/06/26 06:17:02;;;;;;;0.10;0.10;;;;;;;15.61;74.24;101408.94;5053967;28;20048;-82
2021/06/26 06:19:35;;;;;;;0.10;0.10;;;;;;;15.54;74.90;101407.69;5039065;28;20963;-84
2021/06/26 06:22:08;;;;;;;0.20;0.20;;;;;;;15.67;75.25;101414.38;5034540;28;20053;-82
2021/06/26 06:24:44;;;;;;;0.20;0.20;;;;;;;15.82;75.48;101414.16;5041555;28;20052;-83
2021/06/26 06:27:24;;;;;;;0.20;0.20;;;;;;;15.95;73.58;101409.84;5034093;28;20048;-83
2021/06/26 06:29:59;;;;;;;0.13;0.13;;;;;;;16.50;75.52;101409.22;5039930;28;20477;-84
2021/06/26 06:32:35;;;;;;;0.10;0.10;;;;;;;17.10;69.69;101413.06;5035319;28;20048;-83
2021/06/26 06:35:05;;;;;;;0.10;0.10;;;;;;;17.25;65.87;101407.25;5035295;28;20052;-83
2021/06/26 06:37:41;;;;;;;0.20;0.20;;;;;;;17.31;68.44;101403.25;5040849;28;20045;-83
2021/06/26 06:40:17;;;;;;;0.10;0.10;;;;;;;17.68;65.57;101408.81;5045486;28;20091;-84
2021/06/26 06:42:52;;;;;;;0.17;0.17;;;;;;;17.89;64.48;101406.38;5039099;28;20041;-84
2021/06/26 06:45:29;;;;;;;0.10;0.10;;;;;;;17.98;61.88;101423.00;5035603;28;20401;-82
2021/06/26 06:48:02;;;;;;;0.10;0.10;;;;;;;17.94;62.00;101411.81;5039055;28;20041;-82
2021/06/26 06:50:32;;;;;;;0.10;0.10;;;;;;;17.81;61.02;101418.13;5030121;28;20058;-82
2021/06/26 06:53:03;;;;;;;0.20;0.20;;;;;;;17.71;62.78;101418.38;5049361;28;20064;-82
2021/06/26 06:55:36;;;;;;;0.10;0.10;;;;;;;17.56;62.53;101403.81;5036804;28;20045;-82
2021/06/26 06:58:09;;;;;;;0.20;0.20;;;;;;;17.70;61.49;101417.56;5041428;28;20536;-82
2021/06/26 07:00:44;;;;;;;0.10;0.10;;;;;;;17.85;63.19;101416.38;5035841;28;20060;-83
2021/06/26 07:03:17;;;;;;;0.10;0.10;;;;;;;18.17;61.74;101423.66;5037595;28;20037;-83
2021/06/26 07:05:51;;;;;;;0.10;0.10;;;;;;;18.46;61.00;101424.28;5042046;28;20056;-83
2021/06/26 07:08:26;;;;;;;0.10;0.10;;;;;;;18.52;63.01;101429.38;5035654;28;20060;-82
2021/06/26 07:10:59;;;;;;;0.10;0.10;;;;;;;18.69;58.66;101417.59;5037921;28;20056;-82
2021/06/26 07:13:34;;;;;;;0.20;0.20;;;;;;;18.76;62.47;101416.34;5045019;28;20050;-83
2021/06/26 07:16:09;;;;;;;0.10;0.10;;;;;;;18.70;60.89;101419.25;5042305;28;20045;-84
2021/06/26 07:18:42;;;;;;;0.13;0.13;;;;;;;18.92;57.60;101417.59;5033979;28;20492;-83
2021/06/26 07:21:17;;;;;;;0.10;0.10;;;;;;;19.02;57.88;101416.47;5034993;28;20385;-83
2021/06/26 07:23:45;;;;;;;0.10;0.10;;;;;;;19.02;57.56;101422.81;5058088;28;20057;-82
2021/06/26 07:26:19;;;;;;;0.10;0.10;;;;;;;18.96;57.64;101418.56;5044526;28;20759;-83
2021/06/26 07:28:53;;;;;;;0.20;0.20;;;;;;;18.92;57.31;101414.00;5041523;28;20041;-82
2021/06/26 07:31:23;;;;;;;0.10;0.10;;;;;;;18.91;56.55;101406.88;5036219;28;20029;-83
2021/06/26 07:33:59;;;;;;;0.20;0.20;;;;;;;18.87;62.67;101417.69;5040351;28;20041;-83
2021/06/26 07:36:33;;;;;;;0.10;0.10;;;;;;;19.07;58.72;101410.00;5047755;28;20045;-84
2021/06/26 07:39:15;;;;;;;0.10;0.10;;;;;;;19.13;55.09;101414.25;5035964;28;20049;-82
2021/06/26 07:41:50;;;;;;;0.30;0.20;;;;;;;19.29;60.60;101406.31;5048141;28;20489;-84
2021/06/26 07:44:25;;;;;;;0.10;0.10;;;;;;;19.11;57.10;101416.50;5041096;28;20053;-84
2021/06/26 07:46:59;;;;;;;0.10;0.10;;;;;;;18.99;59.69;101411.63;5034162;28;20057;-83
2021/06/26 07:49:33;;;;;;;0.17;0.17;;;;;;;19.23;56.24;101407.63;5036751;28;20045;-82
2021/06/26 07:52:07;;;;;;;0.10;0.10;;;;;;;19.27;58.69;101403.09;5036231;28;20536;-83
2021/06/26 07:54:41;;;;;;;0.10;0.10;;;;;;;19.25;60.79;101408.94;5036388;28;20057;-83
2021/06/26 07:57:14;;;;;;;0.10;0.10;;;;;;;19.24;58.09;101412.81;5041367;28;20055;-82
2021/06/26 07:59:47;;;;;;;0.10;0.10;;;;;;;19.14;58.79;101413.94;5044692;28;20413;-83
2021/06/26 08:02:23;;;;;;;0.17;0.17;;;;;;;19.07;61.76;101405.31;5045273;28;20053;-83
2021/06/26 08:04:57;;;;;;;0.10;0.10;;;;;;;19.09;60.37;101407.75;5042025;28;20049;-83
2021/06/26 08:07:31;;;;;;;0.20;0.10;;;;;;;18.82;59.74;101406.78;5044180;28;20049;-83
2021/06/26 08:10:05;;;;;;;0.10;0.10;;;;;;;18.82;59.42;101404.03;5041531;28;20049;-83
2021/06/26 08:12:38;;;;;;;0.10;0.10;;;;;;;19.33;61.65;101396.25;5042434;28;20410;-82
2021/06/26 08:15:08;;;;;;;0.10;0.10;;;;;;;19.59;58.46;101401.00;5039197;28;20061;-81
2021/06/26 08:17:42;;;;;;;0.20;0.20;;;;;;;19.82;61.94;101399.75;5044543;28;20461;-83
2021/06/26 08:20:16;;;;;;;0.10;0.10;;;;;;;20.13;57.68;101400.69;5038491;28;20052;-83
2021/06/26 08:22:52;;;;;;;0.10;0.10;;;;;;;20.28;59.48;101399.38;5045129;28;20490;-83
2021/06/26 08:25:26;;;;;;;0.10;0.10;;;;;;;20.11;60.49;101397.47;5050724;28;20050;-83
2021/06/26 08:27:59;;;;;;;0.10;0.10;;;;;;;20.40;59.14;101391.22;5046789;28;20049;-83
2021/06/26 08:30:33;;;;;;;0.10;0.10;;;;;;;20.50;57.29;101388.06;5040575;28;20410;-83
2021/06/26 08:33:08;;;;;;;0.10;0.10;;;;;;;20.70;56.00;101394.06;5057745;28;20454;-83
2021/06/26 08:35:42;;;;;;;0.10;0.10;;;;;;;20.81;54.86;101392.56;5045467;28;20060;-83
2021/06/26 08:38:15;;;;;;;0.10;0.10;;;;;;;20.93;53.56;101396.56;5041740;28;20046;-83
2021/06/26 08:40:54;;;;;;;0.10;0.10;;;;;;;20.78;54.02;101395.16;5056214;28;20053;-83
2021/06/26 08:43:28;;;;;;;0.10;0.10;;;;;;;20.24;55.37;101395.66;5039803;28;20044;-82
2021/06/26 08:46:02;;;;;;;0.10;0.10;;;;;;;20.19;56.63;101388.31;5050651;28;20061;-82
2021/06/26 08:48:38;;;;;;;0.10;0.10;;;;;;;20.27;56.31;101393.00;5032502;28;20497;-82
2021/06/26 08:51:13;;;;;;;0.17;0.17;;;;;;;20.03;57.83;101399.88;5040267;28;20049;-82
2021/06/26 08:53:46;;;;;;;0.20;0.20;;;;;;;20.21;58.06;101389.63;5047996;28;20042;-83
2021/06/26 08:56:19;;;;;;;0.10;0.10;;;;;;;20.64;57.58;101395.38;5044340;28;20049;-83
2021/06/26 08:58:52;;;;;;;0.10;0.10;;;;;;;20.02;55.76;101395.53;5055899;28;20045;-84
2021/06/26 09:01:21;;;;;;;0.20;0.20;;;;;;;20.16;55.64;101400.88;5047153;28;20045;-83
2021/06/26 09:04:04;;;;;;;0.10;0.10;;;;;;;20.12;59.72;101405.41;5039251;28;20046;-83
2021/06/26 09:06:49;;;;;;;0.10;0.10;;;;;;;20.45;58.65;101396.53;5039600;28;20405;-83
2021/06/26 09:09:30;;;;;;;0.13;0.13;;;;;;;20.95;60.17;101392.34;5039381;28;20057;-82
2021/06/26 09:12:07;;;;;;;0.10;0.10;;;;;;;20.95;56.29;101402.56;5047363;28;20059;-83
2021/06/26 09:14:45;;;;;;;0.10;0.10;;;;;;;20.68;57.20;101401.88;5050988;28;20053;-83
2021/06/26 09:17:18;;;;;;;0.10;0.10;;;;;;;20.73;57.97;101398.94;5035539;28;20408;-83
2021/06/26 09:19:59;;;;;;;0.10;0.10;;;;;;;20.48;55.87;101392.31;5039928;28;20410;-83
2021/06/26 09:22:40;;;;;;;0.10;0.10;;;;;;;20.44;56.34;101394.94;5031019;28;20057;-82
2021/06/26 09:25:30;;;;;;;0.10;0.10;;;;;;;20.72;59.11;101391.78;5040725;28;20524;-83
2021/06/26 09:28:05;;;;;;;0.10;0.10;;;;;;;20.96;54.18;101398.66;5033792;28;20394;-82
2021/06/26 09:30:42;;;;;;;0.10;0.10;;;;;;;20.35;54.92;101392.19;5047118;28;20547;-83
2021/06/26 09:33:16;;;;;;;;;;;;;;;20.34;61.66;101398.88;5035723;28;20393;-83
2021/06/26 09:36:04;;;;;;;0.10;0.10;;;;;;;20.58;55.73;101396.66;5052527;28;19928;-83
2021/06/26 09:38:54;;;;;;;0.15;0.15;;;;;;;20.82;55.43;101396.94;5032569;28;20116;-83
2021/06/26 09:41:28;;;;;;;0.10;0.10;;;;;;;20.76;56.54;101395.50;5037422;28;20049;-83
2021/06/26 09:44:14;;;;;;;0.10;0.10;;;;;;;21.40;54.09;101388.97;5036756;28;20398;-83
2021/06/26 09:46:51;;;;;;;0.10;0.10;;;;;;;21.57;52.24;101390.00;5047312;28;20055;-82
2021/06/26 09:49:28;;;;;;;0.10;0.10;;;;;;;21.46;54.00;101397.06;5038497;28;20041;-82
2021/06/26 09:52:01;;;;;;;0.10;0.10;;;;;;;21.24;52.83;101397.03;5048379;28;20052;-83
2021/06/26 09:54:34;;;;;;;0.10;0.10;;;;;;;21.14;50.82;101382.78;5038641;28;20398;-82
2021/06/26 09:57:09;;;;;;;0.10;0.10;;;;;;;21.15;52.54;101392.72;5039004;28;20489;-83
2021/06/26 09:59:43;;;;;;;0.10;0.10;;;;;;;21.39;51.70;101394.81;5039816;28;20390;-83
2021/06/26 10:02:22;;;;;;;0.17;0.17;;;;;;;21.45;50.41;101392.66;5045881;28;20057;-82
2021/06/26 10:04:50;;;;;;;0.10;0.10;;;;;;;21.37;52.13;101400.69;5041042;28;20476;-82
2021/06/26 10:07:25;;;;;;;0.10;0.10;;;;;;;21.32;53.68;101389.00;5038989;28;20053;-82
2021/06/26 10:09:53;;;;;;;0.10;0.10;;;;;;;21.78;54.53;101390.00;5034885;28;20425;-83
2021/06/26 10:12:28;;;;;;;0.10;0.10;;;;;;;21.27;53.34;101390.03;5034135;28;20060;-83
2021/06/26 10:15:01;;;;;;;0.10;0.10;;;;;;;21.22;52.91;101392.97;5049362;28;21548;-82
2021/06/26 10:17:36;;;;;;;0.10;0.10;;;;;;;21.44;53.96;101391.06;5041668;28;20151;-84
2021/06/26 10:20:13;;;;;;;0.10;0.10;;;;;;;21.43;53.46;101390.22;5036365;28;20049;-83
2021/06/26 10:22:52;;;;;;;0.17;0.17;;;;;;;21.71;53.16;101384.22;5041257;28;20037;-84
2021/06/26 10:25:30;;;;;;;0.10;0.10;;;;;;;21.79;52.59;101396.34;5046781;28;20063;-83
2021/06/26 10:28:06;;;;;;;0.10;0.10;;;;;;;21.66;52.00;101387.19;5033570;28;20496;-83
2021/06/26 10:31:01;;;;;;;0.10;0.10;;;;;;;21.24;52.56;101387.94;5031085;28;20049;-83
2021/06/26 10:33:36;;;;;;;0.17;0.17;;;;;;;21.79;53.79;101385.25;5045741;28;20045;-82
2021/06/26 10:36:10;;;;;;;0.10;0.10;;;;;;;21.67;52.19;101380.50;5036398;28;20046;-81
2021/06/26 10:38:46;;;;;;;0.10;0.10;;;;;;;21.76;53.78;101383.97;5032546;28;20042;-82
2021/06/26 10:41:22;;;;;;;0.10;0.10;;;;;;;21.65;53.02;101382.78;5051449;28;20383;-82
2021/06/26 10:43:56;;;;;;;0.10;0.10;;;;;;;21.93;54.30;101380.25;5037075;28;20052;-83
2021/06/26 10:46:30;;;;;;;0.10;0.10;;;;;;;21.97;52.35;101378.44;5034289;28;20045;-83
2021/06/26 10:49:06;;;;;;;0.10;0.10;;;;;;;21.33;51.74;101382.34;5040724;28;20049;-85
2021/06/26 10:51:43;;;;;;;0.10;0.10;;;;;;;21.40;53.17;101385.38;5044525;28;20056;-85
2021/06/26 10:54:16;;;;;;;0.10;0.10;;;;;;;21.67;54.98;101380.50;5034267;28;20041;-86
2021/06/26 10:56:51;;;;;;;0.20;0.20;;;;;;;21.56;52.69;101375.34;5044075;28;20068;-84
2021/06/26 10:59:21;;;;;;;0.10;0.10;;;;;;;21.86;55.34;101375.28;5041606;28;20050;-85
2021/06/26 11:01:57;;;;;;;0.10;0.10;;;;;;;21.60;53.69;101377.44;5034741;28;20053;-84
2021/06/26 11:04:33;;;;;;;0.10;0.10;;;;;;;21.77;52.39;101380.06;5033482;28;20049;-84
2021/06/26 11:07:08;;;;;;;0.10;0.10;;;;;;;21.45;52.64;101370.50;5039759;28;20060;-86
2021/06/26 11:09:39;;;;;;;0.10;0.10;;;;;;;21.45;55.49;101379.66;5032854;28;20688;-85
2021/06/26 11:12:16;;;;;;;0.10;0.10;;;;;;;21.52;53.14;101379.94;5039096;28;20048;-83
2021/06/26 11:14:51;;;;;;;0.10;0.10;;;;;;;21.37;53.72;101381.31;5038008;28;20045;-85
2021/06/26 11:17:35;;;;;;;0.10;0.10;;;;;;;21.44;54.48;101385.53;5040666;28;20045;-84
2021/06/26 11:20:12;;;;;;;0.10;0.10;;;;;;;21.48;53.23;101381.72;5045577;28;20057;-84
2021/06/26 11:22:52;;;;;;;0.03;0.03;;;;;;;21.65;54.23;101386.34;5037267;28;20048;-85
2021/06/26 11:25:27;;;;;;;0.20;0.20;;;;;;;21.61;53.63;101387.38;5004215;28;20053;-85
2021/06/26 11:28:03;;;;;;;0.13;0.13;;;;;;;21.38;57.03;101382.94;5034711;28;20037;-84
2021/06/26 11:30:38;;;;;;;0.10;0.10;;;;;;;21.27;55.90;101389.19;5031350;28;20053;-84
2021/06/26 11:33:13;;;;;;;0.10;0.10;;;;;;;21.43;54.70;101392.19;5034479;28;20155;-85
2021/06/26 11:35:46;;;;;;;0.10;0.10;;;;;;;21.48;54.05;101392.81;5035066;28;20056;-84
2021/06/26 11:38:21;;;;;;;0.10;0.10;;;;;;;21.35;53.22;101377.25;5034996;28;20049;-84
2021/06/26 11:41:01;;;;;;;0.10;0.10;;;;;;;21.42;54.60;101388.63;5036672;28;20056;-85
2021/06/26 11:43:47;;;;;;;0.10;0.10;;;;;;;21.34;54.54;101370.13;5036508;28;20056;-84
2021/06/26 11:46:21;;;;;;;0.10;0.10;;;;;;;21.46;55.07;101378.50;5038718;28;20303;-84
2021/06/26 11:48:54;;;;;;;0.10;0.10;;;;;;;21.37;53.07;101384.09;5034489;28;20057;-85
2021/06/26 11:51:28;;;;;;;0.35;0.10;;;;;;;21.61;55.03;101385.41;5039180;28;20056;-83
2021/06/26 11:54:01;;;;;;;0.10;0.10;;;;;;;21.70;56.35;101382.59;5038895;28;20056;-83
2021/06/26 11:56:30;;;;;;;0.10;0.10;;;;;;;21.49;54.07;101379.75;5042100;28;20052;-85
2021/06/26 11:59:06;;;;;;;0.10;0.10;;;;;;;21.54;55.26;101379.59;5034775;28;20061;-86
2021/06/26 12:01:36;;;;;;;0.10;0.10;;;;;;;21.70;54.78;101377.03;5034243;28;20695;-85
2021/06/26 12:04:05;;;;;;;0.10;0.10;;;;;;;21.60;56.77;101386.56;5034652;28;20052;-85
2021/06/26 12:06:38;;;;;;;0.10;0.10;;;;;;;21.59;57.07;101387.72;5034132;28;20064;-85
2021/06/26 12:09:07;;;;;;;0.10;0.10;;;;;;;21.64;54.35;101389.47;5035755;28;20045;-85
2021/06/26 12:11:44;;;;;;;0.10;0.10;;;;;;;21.52;55.05;101379.94;5036590;28;20053;-84
2021/06/26 12:14:14;;;;;;;0.10;0.10;;;;;;;21.79;55.96;101390.81;5035718;28;20053;-84
2021/06/26 12:16:42;;;;;;;0.10;0.10;;;;;;;21.79;56.06;101388.84;5038995;28;20440;-84
2021/06/26 12:19:16;;;;;;;0.10;0.10;;;;;;;21.77;55.50;101382.84;5053899;28;20068;-85
2021/06/26 12:21:53;;;;;;;0.15;0.10;;;;;;;21.79;55.90;101386.06;5036176;28;20060;-84